Time;durP1;ratioP1;P1;durP2;ratioP2;P2;SDS_P1;SDS_P2;PMS_P1;PMS_P2;Temp;Humidity;BMP_temperature;BMP_pressure;BME280_temperature;BME280_humidity;BME280_pressure;Samples;Min_cycle;Max_cycle;Signal;HPM_P1;HPM_P2
2023/09/22 03:02:41;;;;;;;5.10;1.02;;;19.90;91.90;;;;;;5062545;28;20170;-82
2023/09/22 03:05:08;;;;;;;1.08;0.90;;;19.90;91.90;;;;;;5060893;28;20485;-83
2023/09/22 03:07:33;;;;;;;0.80;0.80;;;19.90;91.90;;;;;;5065092;28;20025;-82
2023/09/22 03:09:59;;;;;;;0.93;0.90;;;19.90;91.90;;;;;;5045818;28;20384;-82
2023/09/22 03:16:20;;;;;;;0.85;0.70;;;19.90;91.90;;;;;;5065000;28;20035;-82
2023/09/22 03:19:25;;;;;;;0.82;0.55;;;19.90;91.90;;;;;;5043267;28;20040;-82
2023/09/22 03:21:56;;;;;;;1.00;0.93;;;19.90;91.90;;;;;;5043310;28;20394;-82
2023/09/22 03:31:28;;;;;;;0.98;0.88;;;19.90;91.80;;;;;;5064322;28;20108;-82
2023/09/22 03:34:27;;;;;;;1.40;0.90;;;19.90;91.80;;;;;;5044563;28;20040;-83
2023/09/22 03:57:41;;;;;;;2.42;1.30;;;19.90;91.70;;;;;;5060682;28;20091;-82
2023/09/22 05:08:14;;;;;;;1.40;0.90;;;19.80;91.60;;;;;;4967134;28;20027;-82
2023/09/22 05:51:52;;;;;;;1.73;0.98;;;19.80;91.50;;;;;;5057940;28;20038;-82
2023/09/22 05:54:18;;;;;;;1.70;0.82;;;19.80;91.50;;;;;;5040840;28;20028;-82
2023/09/22 05:57:39;;;;;;;1.70;1.08;;;19.80;91.50;;;;;;5027397;28;20029;-82
2023/09/22 06:00:31;;;;;;;2.35;0.80;;;19.80;91.50;;;;;;5045788;28;20108;-82
2023/09/22 06:03:14;;;;;;;0.80;0.80;;;19.80;91.50;;;;;;5021482;28;20026;-82
2023/09/22 06:06:03;;;;;;;1.25;0.80;;;19.80;91.50;;;;;;5026692;28;20025;-82
2023/09/22 06:08:38;;;;;;;1.33;0.70;;;19.80;91.50;;;;;;4964941;28;20035;-82
2023/09/22 06:59:17;;;;;;;1.40;0.98;;;19.70;91.50;;;;;;5063875;28;20747;-83
2023/09/22 07:01:43;;;;;;;2.55;1.15;;;19.70;91.50;;;;;;5066715;28;20028;-82
2023/09/22 07:04:10;;;;;;;1.15;0.75;;;19.70;91.50;;;;;;5053573;28;20020;-82
2023/09/22 07:06:36;;;;;;;0.90;0.90;;;19.70;91.50;;;;;;5047088;28;20108;-83
2023/09/22 07:09:02;;;;;;;1.80;0.80;;;19.70;91.50;;;;;;5067720;28;20052;-82
2023/09/22 07:11:28;;;;;;;1.48;1.02;;;19.70;91.50;;;;;;5045603;28;20426;-82
2023/09/22 07:13:54;;;;;;;1.67;1.17;;;19.70;91.50;;;;;;5044282;28;20063;-82
2023/09/22 07:16:23;;;;;;;2.42;1.00;;;19.70;91.60;;;;;;5044518;28;20057;-82
2023/09/22 07:18:49;;;;;;;1.17;1.02;;;19.70;91.50;;;;;;5065945;28;20052;-83
2023/09/22 07:21:14;;;;;;;2.03;1.17;;;19.70;91.60;;;;;;5047812;28;20055;-83
2023/09/22 07:23:40;;;;;;;4.97;1.10;;;19.70;91.60;;;;;;5055065;28;20463;-83
2023/09/22 07:26:09;;;;;;;2.65;1.00;;;19.70;91.60;;;;;;5062214;28;20031;-83
2023/09/22 07:28:36;;;;;;;4.88;1.10;;;19.70;91.60;;;;;;5064649;28;20016;-82
2023/09/22 07:31:12;;;;;;;3.13;1.23;;;19.70;91.60;;;;;;5060152;28;20032;-83
2023/09/22 07:33:37;;;;;;;2.08;0.90;;;19.70;91.60;;;;;;5046935;28;20104;-83
2023/09/22 07:36:03;;;;;;;2.55;0.90;;;19.70;91.60;;;;;;5064023;28;20158;-83
2023/09/22 07:38:29;;;;;;;1.90;1.10;;;19.70;91.60;;;;;;5043864;28;20059;-82
2023/09/22 07:40:55;;;;;;;1.88;1.13;;;19.70;91.60;;;;;;5063275;28;20207;-83
2023/09/22 07:43:21;;;;;;;1.60;1.30;;;19.70;91.60;;;;;;5062403;28;20027;-82
2023/09/22 07:45:48;;;;;;;1.55;1.10;;;19.70;91.60;;;;;;5060228;28;20020;-82
2023/09/22 07:48:13;;;;;;;1.00;0.95;;;19.70;91.60;;;;;;5042630;28;20024;-83
2023/09/22 07:50:41;;;;;;;1.17;0.98;;;19.70;92.00;;;;;;5061867;28;20024;-83
2023/09/22 07:53:07;;;;;;;1.60;1.20;;;19.70;91.60;;;;;;5049654;28;20020;-83
2023/09/22 07:55:32;;;;;;;4.88;1.02;;;19.70;91.60;;;;;;5068213;28;20067;-83
2023/09/22 07:57:58;;;;;;;1.45;1.00;;;19.70;91.60;;;;;;5064866;28;20028;-83
2023/09/22 08:00:26;;;;;;;2.13;1.20;;;19.70;91.60;;;;;;5047905;28;20044;-82
2023/09/22 08:03:38;;;;;;;1.20;0.90;;;19.70;91.60;;;;;;5043541;28;20037;-82
2023/09/22 08:06:05;;;;;;;1.10;0.90;;;19.70;91.60;;;;;;5046140;28;20490;-82
2023/09/22 08:08:31;;;;;;;6.57;1.30;;;19.70;91.70;;;;;;5062098;28;20032;-83
2023/09/22 08:10:58;;;;;;;2.95;1.17;;;19.70;91.70;;;;;;5049126;28;20028;-83
2023/09/22 08:13:24;;;;;;;1.23;0.80;;;19.70;91.70;;;;;;5051754;28;20029;-81
2023/09/22 08:15:51;;;;;;;1.35;1.20;;;19.70;91.70;;;;;;5064814;28;20473;-83
2023/09/22 08:18:16;;;;;;;7.28;1.98;;;19.70;91.70;;;;;;5051276;28;20032;-82
2023/09/22 08:20:42;;;;;;;4.68;1.55;;;19.70;91.70;;;;;;5070440;28;20074;-84
2023/09/22 08:23:08;;;;;;;2.95;1.38;;;19.70;91.70;;;;;;5058811;28;20024;-83
2023/09/22 08:25:43;;;;;;;6.70;1.83;;;19.70;91.70;;;;;;5053551;28;20044;-82
2023/09/22 08:28:12;;;;;;;2.50;1.20;;;19.70;91.70;;;;;;5055018;28;20025;-86
2023/09/22 08:30:39;;;;;;;2.92;1.73;;;19.60;91.70;;;;;;5050879;28;20045;-82
2023/09/22 08:33:05;;;;;;;2.78;2.00;;;19.60;91.70;;;;;;5055273;28;20610;-82
2023/09/22 08:35:31;;;;;;;7.90;1.67;;;19.70;91.70;;;;;;5043985;28;20024;-84
2023/09/22 08:37:57;;;;;;;4.80;1.35;;;19.60;91.70;;;;;;5047441;28;20094;-83
2023/09/22 08:40:22;;;;;;;6.07;1.35;;;19.70;91.70;;;;;;5053810;28;20112;-82
2023/09/22 08:42:51;;;;;;;2.50;1.15;;;19.60;91.70;;;;;;5069283;28;20064;-82
2023/09/22 08:45:16;;;;;;;2.05;1.30;;;19.60;91.70;;;;;;5067843;28;20028;-83
2023/09/22 08:47:45;;;;;;;5.90;1.27;;;19.60;91.70;;;;;;5063864;28;20013;-82
2023/09/22 08:50:18;;;;;;;2.20;1.05;;;19.60;91.70;;;;;;5070361;28;20385;-82
2023/09/22 08:52:47;;;;;;;1.27;0.90;;;19.60;91.70;;;;;;5068537;28;20103;-83
2023/09/22 08:55:16;;;;;;;1.77;0.70;;;19.70;91.70;;;;;;5078914;28;20162;-82
2023/09/22 08:57:45;;;;;;;1.75;0.90;;;19.70;91.80;;;;;;5054043;28;20020;-82
2023/09/22 09:00:23;;;;;;;0.60;0.60;;;19.60;91.70;;;;;;5071969;28;20074;-83
2023/09/22 09:02:50;;;;;;;1.10;0.88;;;19.60;91.70;;;;;;5057996;28;20064;-83
2023/09/22 09:05:27;;;;;;;0.80;0.80;;;19.60;91.70;;;;;;5056998;28;20081;-83
2023/09/22 09:07:53;;;;;;;0.68;0.63;;;19.60;91.80;;;;;;5052070;28;20124;-83
2023/09/22 09:10:32;;;;;;;1.85;0.82;;;19.60;91.80;;;;;;5067595;28;20016;-82
2023/09/22 09:13:01;;;;;;;4.15;0.70;;;19.60;91.80;;;;;;5053612;28;20044;-82
2023/09/22 09:15:41;;;;;;;3.35;0.82;;;19.60;91.70;;;;;;5069992;28;20020;-83
2023/09/22 09:18:11;;;;;;;1.17;0.77;;;19.60;91.80;;;;;;5056989;28;20033;-82
2023/09/22 09:20:40;;;;;;;;;;;19.60;91.80;;;;;;5054533;28;20032;-83
2023/09/22 09:23:19;;;;;;;4.70;0.93;;;19.60;91.80;;;;;;5044593;28;19913;-83
2023/09/22 09:25:46;;;;;;;1.10;1.00;;;19.60;91.80;;;;;;5070180;28;20516;-83
2023/09/22 09:28:13;;;;;;;0.98;0.80;;;19.60;91.80;;;;;;5068414;28;20016;-83
2023/09/22 09:30:51;;;;;;;0.70;0.70;;;19.60;91.80;;;;;;5070319;28;20484;-83
2023/09/22 09:33:22;;;;;;;0.60;0.60;;;19.60;91.80;;;;;;5047298;28;20065;-82
2023/09/22 09:35:49;;;;;;;2.72;0.63;;;19.60;91.80;;;;;;5065376;28;20160;-84
2023/09/22 09:38:15;;;;;;;2.78;0.90;;;19.60;91.80;;;;;;5049796;28;20032;-82
2023/09/22 09:40:41;;;;;;;0.65;0.55;;;19.60;91.80;;;;;;5047025;28;20044;-83
2023/09/22 09:43:12;;;;;;;1.00;0.70;;;19.60;91.80;;;;;;5061118;28;20405;-84
2023/09/22 09:45:43;;;;;;;1.42;0.68;;;19.60;91.80;;;;;;5050732;28;20025;-82
2023/09/22 09:48:14;;;;;;;1.02;0.88;;;19.60;91.80;;;;;;5045096;28;20408;-83
2023/09/22 09:50:42;;;;;;;1.92;1.20;;;19.60;91.80;;;;;;5038396;28;20017;-83
2023/09/22 09:53:31;;;;;;;3.88;1.40;;;19.60;91.80;;;;;;5046990;28;20094;-83
2023/09/22 09:56:00;;;;;;;0.95;0.90;;;19.60;91.70;;;;;;5054269;28;20037;-83
2023/09/22 09:58:29;;;;;;;1.65;0.98;;;19.60;91.70;;;;;;5050682;28;20055;-82
2023/09/22 10:00:56;;;;;;;0.65;0.60;;;19.60;91.70;;;;;;5056447;28;20025;-82
2023/09/22 10:03:22;;;;;;;0.73;0.73;;;19.60;91.70;;;;;;5065115;28;20051;-83
2023/09/22 10:05:51;;;;;;;0.60;0.50;;;20.30;91.90;;;;;;5065093;28;20023;-83
2023/09/22 10:08:22;;;;;;;1.60;1.10;;;19.60;91.70;;;;;;5046786;28;20024;-82
2023/09/22 10:10:50;;;;;;;4.10;1.30;;;19.60;91.70;;;;;;5027894;28;20053;-82
2023/09/22 10:13:17;;;;;;;1.30;0.93;;;19.60;91.70;;;;;;5065901;28;20036;-82
2023/09/22 10:15:59;;;;;;;1.98;1.15;;;19.60;91.70;;;;;;5038334;28;20031;-83
2023/09/22 10:18:55;;;;;;;3.10;0.82;;;19.60;91.70;;;;;;5065587;28;20097;-82
2023/09/22 10:21:48;;;;;;;3.90;1.17;;;19.60;91.70;;;;;;5049249;28;20035;-81
2023/09/22 10:24:17;;;;;;;1.27;0.60;;;19.60;91.70;;;;;;5055242;28;20021;-81
2023/09/22 10:27:07;;;;;;;4.47;1.88;;;19.60;91.70;;;;;;5050053;28;20072;-82
2023/09/22 10:29:33;;;;;;;3.97;1.42;;;19.60;91.70;;;;;;5066156;28;20112;-82
2023/09/22 10:34:53;;;;;;;3.28;0.80;;;19.60;91.60;;;;;;5063053;28;20389;-83
2023/09/22 10:37:29;;;;;;;1.33;0.63;;;19.60;91.60;;;;;;5063511;28;20048;-82
2023/09/22 10:40:09;;;;;;;2.67;1.02;;;19.60;91.60;;;;;;5064062;28;20521;-83
2023/09/22 10:42:41;;;;;;;1.02;0.60;;;19.60;92.00;;;;;;5052390;28;20381;-83
2023/09/22 10:45:08;;;;;;;2.00;0.52;;;19.60;91.60;;;;;;5049131;28;20020;-82
2023/09/22 10:47:44;;;;;;;3.92;0.80;;;19.60;91.60;;;;;;5047652;28;20473;-82
2023/09/22 10:50:13;;;;;;;1.48;0.75;;;19.60;91.60;;;;;;5060890;28;20025;-82
2023/09/22 10:52:41;;;;;;;1.25;0.65;;;19.60;91.60;;;;;;5049560;28;20035;-82
2023/09/22 10:55:07;;;;;;;11.68;0.70;;;19.60;91.90;;;;;;5044631;28;20083;-82
2023/09/22 10:57:36;;;;;;;1.85;0.68;;;19.60;91.60;;;;;;5045999;28;20507;-82
2023/09/22 11:00:10;;;;;;;0.73;0.73;;;19.50;91.50;;;;;;5066941;28;20385;-82
2023/09/22 11:02:36;;;;;;;2.05;1.00;;;19.60;91.60;;;;;;5050917;28;20490;-82
2023/09/22 11:05:02;;;;;;;0.70;0.70;;;19.50;91.50;;;;;;5070792;28;20119;-82
2023/09/22 11:07:35;;;;;;;3.15;0.70;;;19.50;91.50;;;;;;5064229;28;20032;-82
2023/09/22 11:10:02;;;;;;;0.50;0.50;;;19.60;91.60;;;;;;5047004;28;20027;-82
2023/09/22 11:12:28;;;;;;;0.63;0.60;;;19.60;91.60;;;;;;5072246;28;20021;-82
2023/09/22 11:14:55;;;;;;;0.68;0.60;;;19.60;91.60;;;;;;5068760;28;20048;-82
2023/09/22 11:17:21;;;;;;;0.60;0.60;;;19.60;91.60;;;;;;5048446;28;20115;-84
2023/09/22 11:19:54;;;;;;;0.98;0.70;;;19.60;91.50;;;;;;5069806;28;20020;-82
2023/09/22 11:22:20;;;;;;;1.08;0.90;;;19.50;91.50;;;;;;5048848;28;20116;-82
2023/09/22 11:24:47;;;;;;;0.80;0.68;;;19.50;91.50;;;;;;5043351;28;20697;-81
2023/09/22 11:27:13;;;;;;;1.85;0.60;;;19.50;91.50;;;;;;5068160;28;20099;-82
2023/09/22 11:29:39;;;;;;;0.65;0.65;;;19.50;91.50;;;;;;5061128;28;20096;-82
2023/09/22 11:32:06;;;;;;;2.35;1.52;;;19.50;91.50;;;;;;5062448;28;20052;-81
2023/09/22 11:34:32;;;;;;;6.05;1.20;;;19.50;91.50;;;;;;5062068;28;20021;-82
2023/09/22 11:36:58;;;;;;;0.98;0.80;;;19.50;91.50;;;;;;5062172;28;20116;-82
2023/09/22 11:39:29;;;;;;;0.82;0.70;;;19.50;91.50;;;;;;5049136;28;20597;-82
2023/09/22 11:41:55;;;;;;;0.60;0.60;;;19.50;91.40;;;;;;5051593;28;20546;-82
2023/09/22 11:44:21;;;;;;;0.80;0.77;;;19.60;91.50;;;;;;5046624;28;20135;-82
2023/09/22 11:46:48;;;;;;;7.82;1.60;;;19.60;91.30;;;;;;5045902;28;20022;-81
2023/09/22 11:49:13;;;;;;;4.60;1.10;;;19.50;91.10;;;;;;5064021;28;20436;-81
2023/09/22 11:51:57;;;;;;;1.88;1.05;;;19.50;91.10;;;;;;5045858;28;20013;-82
2023/09/22 11:54:24;;;;;;;0.55;0.50;;;19.50;91.10;;;;;;5064694;28;20020;-80
2023/09/22 11:56:56;;;;;;;0.60;0.60;;;19.50;90.80;;;;;;5038821;28;20061;-82
2023/09/22 11:59:27;;;;;;;0.50;0.50;;;19.40;90.20;;;;;;5036394;28;20100;-82
2023/09/22 12:01:53;;;;;;;0.50;0.50;;;19.40;90.60;;;;;;5046829;28;20037;-83
2023/09/22 12:04:19;;;;;;;0.60;0.60;;;19.40;90.30;;;;;;5044029;28;20420;-82
2023/09/22 12:06:45;;;;;;;1.17;0.70;;;19.50;90.20;;;;;;5052593;28;20040;-83
2023/09/22 12:09:13;;;;;;;1.60;0.63;;;19.50;90.20;;;;;;5061982;28;20024;-82
2023/09/22 12:11:42;;;;;;;1.30;1.20;;;19.40;90.20;;;;;;5048207;28;20025;-82
2023/09/22 12:14:09;;;;;;;3.03;0.93;;;19.40;90.20;;;;;;5065607;28;20033;-83
2023/09/22 12:16:35;;;;;;;0.68;0.60;;;19.50;90.30;;;;;;5044427;28;20029;-83
2023/09/22 12:19:01;;;;;;;1.15;0.90;;;19.40;90.30;;;;;;5064198;28;20039;-82
2023/09/22 12:21:29;;;;;;;0.52;0.50;;;19.50;90.30;;;;;;5066193;28;20035;-85
2023/09/22 12:23:55;;;;;;;1.13;0.55;;;19.40;90.30;;;;;;5061073;28;20040;-86
2023/09/22 12:26:21;;;;;;;0.55;0.50;;;19.50;90.30;;;;;;5046077;28;20037;-83
2023/09/22 12:28:47;;;;;;;1.13;0.77;;;19.40;90.30;;;;;;5041294;28;20028;-83
2023/09/22 12:31:18;;;;;;;0.55;0.55;;;19.50;90.40;;;;;;5057372;28;20020;-82
2023/09/22 12:33:47;;;;;;;0.40;0.40;;;19.50;90.40;;;;;;5058345;28;20025;-82
2023/09/22 12:36:14;;;;;;;0.40;0.40;;;19.50;90.40;;;;;;5057595;28;20033;-82
2023/09/22 12:38:41;;;;;;;2.40;0.60;;;19.50;90.40;;;;;;5063618;28;20024;-82
2023/09/22 12:41:07;;;;;;;0.50;0.50;;;19.50;90.40;;;;;;5044004;28;20481;-82
2023/09/22 12:43:32;;;;;;;0.55;0.55;;;19.40;90.40;;;;;;5049890;28;20032;-83
2023/09/22 12:45:58;;;;;;;3.90;0.70;;;19.50;90.40;;;;;;5039589;28;20114;-83
2023/09/22 12:48:24;;;;;;;1.13;0.63;;;19.50;90.40;;;;;;5056931;28;20025;-82
2023/09/22 12:50:56;;;;;;;0.43;0.43;;;19.50;90.40;;;;;;5063653;28;20024;-82
2023/09/22 12:53:25;;;;;;;0.57;0.57;;;19.50;90.40;;;;;;5046154;28;20029;-83
2023/09/22 12:55:58;;;;;;;0.50;0.50;;;19.50;90.40;;;;;;5063654;28;20029;-82
2023/09/22 12:58:28;;;;;;;0.70;0.60;;;19.50;90.40;;;;;;5061354;28;20040;-82
2023/09/22 13:00:57;;;;;;;0.50;0.50;;;19.50;90.40;;;;;;5053034;28;20482;-82
2023/09/22 13:03:26;;;;;;;0.50;0.50;;;19.50;90.40;;;;;;5057951;28;20048;-82
2023/09/22 13:05:53;;;;;;;0.50;0.50;;;19.50;90.40;;;;;;5068726;28;20097;-82
2023/09/22 13:08:19;;;;;;;0.60;0.60;;;19.50;90.40;;;;;;5070360;28;20036;-84
2023/09/22 13:10:45;;;;;;;1.25;0.50;;;19.50;90.80;;;;;;5047068;28;20025;-82
2023/09/22 13:13:11;;;;;;;0.60;0.52;;;19.50;90.40;;;;;;5045817;28;20490;-83
2023/09/22 13:15:44;;;;;;;5.32;0.60;;;19.50;90.40;;;;;;5050431;28;20481;-82
2023/09/22 13:18:12;;;;;;;1.55;0.60;;;19.50;90.40;;;;;;5064547;28;20490;-83
2023/09/22 13:20:38;;;;;;;0.68;0.60;;;19.50;90.40;;;;;;5051025;28;20029;-82
2023/09/22 13:23:04;;;;;;;4.30;0.65;;;19.50;90.40;;;;;;5052650;28;20033;-82
2023/09/22 13:25:35;;;;;;;0.60;0.60;;;19.50;90.40;;;;;;5049205;28;20028;-83
2023/09/22 13:28:00;;;;;;;0.60;0.57;;;19.50;90.40;;;;;;5067585;28;20025;-83
2023/09/22 13:30:26;;;;;;;0.52;0.52;;;19.50;90.40;;;;;;5065652;28;20108;-82
2023/09/22 13:32:52;;;;;;;3.95;0.70;;;19.50;90.40;;;;;;5049738;28;20037;-82
2023/09/22 13:35:18;;;;;;;0.75;0.70;;;19.50;90.40;;;;;;5076423;28;20020;-82
2023/09/22 13:37:44;;;;;;;0.50;0.50;;;19.50;90.40;;;;;;5067856;28;20036;-82
2023/09/22 13:40:11;;;;;;;0.50;0.50;;;19.50;90.40;;;;;;5065540;28;20029;-82
2023/09/22 13:42:37;;;;;;;1.40;0.52;;;19.50;90.40;;;;;;5046333;28;20414;-82
2023/09/22 13:45:05;;;;;;;1.33;0.65;;;19.50;90.70;;;;;;5069998;28;20027;-82
2023/09/22 13:47:30;;;;;;;0.40;0.40;;;19.50;90.40;;;;;;5065989;28;20020;-82
2023/09/22 13:49:56;;;;;;;0.65;0.65;;;19.50;90.40;;;;;;5049394;28;20032;-82
2023/09/22 13:52:22;;;;;;;0.60;0.60;;;19.50;90.40;;;;;;5065580;28;20036;-82
2023/09/22 13:54:48;;;;;;;0.60;0.60;;;19.50;90.40;;;;;;5046057;28;20500;-82
2023/09/22 13:57:14;;;;;;;0.95;0.43;;;19.50;90.40;;;;;;5054282;28;20029;-83
2023/09/22 13:59:39;;;;;;;0.75;0.75;;;19.50;90.40;;;;;;5053519;28;20036;-82
2023/09/22 14:02:06;;;;;;;0.75;0.70;;;19.50;90.40;;;;;;5045688;28;20090;-83
2023/09/22 14:04:32;;;;;;;2.90;0.80;;;19.50;90.40;;;;;;5044234;28;20021;-82
2023/09/22 14:06:58;;;;;;;0.57;0.57;;;19.50;90.40;;;;;;5062656;28;20024;-82
2023/09/22 14:09:23;;;;;;;4.18;0.68;;;19.50;90.40;;;;;;5045335;28;20032;-82
2023/09/22 14:11:49;;;;;;;1.23;0.60;;;19.50;90.40;;;;;;5057827;28;20032;-82
2023/09/22 14:14:15;;;;;;;0.70;0.70;;;19.50;90.40;;;;;;5045950;28;20037;-82
2023/09/22 14:16:41;;;;;;;0.57;0.57;;;19.50;90.40;;;;;;5042956;28;20082;-82
2023/09/22 14:19:07;;;;;;;1.50;0.70;;;19.50;90.40;;;;;;5040188;28;20111;-83
2023/09/22 14:21:32;;;;;;;1.95;0.80;;;19.50;90.40;;;;;;5058672;28;20085;-82
2023/09/22 14:23:58;;;;;;;1.15;0.70;;;19.50;90.40;;;;;;5060378;28;20060;-83
2023/09/22 14:26:26;;;;;;;0.50;0.50;;;19.40;90.40;;;;;;5050517;28;20025;-83
2023/09/22 14:28:52;;;;;;;0.60;0.60;;;19.40;90.40;;;;;;5046018;28;20031;-82
2023/09/22 14:31:18;;;;;;;0.55;0.55;;;19.50;90.40;;;;;;5042852;28;20028;-83
2023/09/22 14:33:44;;;;;;;0.60;0.60;;;19.50;90.40;;;;;;5047703;28;20478;-82
2023/09/22 14:36:10;;;;;;;0.85;0.70;;;19.40;90.30;;;;;;5054390;28;20077;-82
2023/09/22 14:38:36;;;;;;;3.80;0.63;;;19.40;90.30;;;;;;5047515;28;20117;-83
2023/09/22 14:41:05;;;;;;;1.08;0.50;;;19.50;90.30;;;;;;5050123;28;20042;-83
2023/09/22 14:43:31;;;;;;;0.80;0.80;;;19.40;90.30;;;;;;5040627;28;20039;-82
2023/09/22 14:45:56;;;;;;;0.75;0.75;;;19.50;90.30;;;;;;5046143;28;20316;-83
2023/09/22 14:48:22;;;;;;;0.70;0.60;;;19.50;90.30;;;;;;5045714;28;20033;-82
2023/09/22 14:50:50;;;;;;;0.57;0.50;;;19.50;90.30;;;;;;5049214;28;20473;-83
2023/09/22 14:53:15;;;;;;;1.23;0.60;;;19.50;90.60;;;;;;5059677;28;20767;-82
2023/09/22 14:55:41;;;;;;;0.93;0.70;;;19.40;90.30;;;;;;5058479;28;20039;-83
2023/09/22 14:58:08;;;;;;;3.50;0.65;;;19.50;90.30;;;;;;5065523;28;20020;-82
2023/09/22 15:00:33;;;;;;;0.80;0.77;;;19.50;90.30;;;;;;5049888;28;20034;-83
2023/09/22 15:03:00;;;;;;;0.75;0.60;;;19.50;90.30;;;;;;5056610;28;20033;-83
2023/09/22 15:05:26;;;;;;;0.63;0.63;;;19.50;90.30;;;;;;5048228;28;20123;-82
2023/09/22 15:07:52;;;;;;;2.25;0.60;;;19.40;90.20;;;;;;5045171;28;20120;-83
2023/09/22 15:10:18;;;;;;;0.60;0.50;;;19.40;90.20;;;;;;5062122;28;20381;-83
2023/09/22 15:12:43;;;;;;;0.75;0.60;;;19.40;90.20;;;;;;5043560;28;20059;-82
2023/09/22 15:15:09;;;;;;;0.75;0.75;;;19.40;90.20;;;;;;5042373;28;20146;-83
2023/09/22 15:17:36;;;;;;;2.45;2.08;;;19.50;90.30;;;;;;5045103;28;20028;-82
2023/09/22 15:20:03;;;;;;;2.05;0.80;;;19.50;90.20;;;;;;5046646;28;20021;-83
2023/09/22 15:22:29;;;;;;;0.73;0.60;;;19.50;90.20;;;;;;5050806;28;20025;-82
2023/09/22 15:24:55;;;;;;;0.60;0.60;;;19.50;90.20;;;;;;5051636;28;20033;-82
2023/09/22 15:27:20;;;;;;;0.30;0.30;;;19.50;90.20;;;;;;5062960;28;20029;-82
2023/09/22 15:29:49;;;;;;;0.70;0.70;;;19.50;90.20;;;;;;5047829;28;20115;-83
2023/09/22 15:32:15;;;;;;;0.52;0.52;;;19.50;90.10;;;;;;5047165;28;20027;-82
2023/09/22 15:34:40;;;;;;;0.82;0.60;;;19.40;90.00;;;;;;5046666;28;20385;-83
2023/09/22 15:37:08;;;;;;;0.50;0.50;;;19.40;90.00;;;;;;5056564;28;20037;-83
2023/09/22 15:39:35;;;;;;;0.45;0.45;;;19.40;90.00;;;;;;5046857;28;20029;-83
2023/09/22 15:42:06;;;;;;;0.90;0.50;;;19.40;90.00;;;;;;5044052;28;20021;-83
2023/09/22 15:44:35;;;;;;;0.73;0.60;;;19.40;90.00;;;;;;5043413;28;20024;-82
2023/09/22 15:47:00;;;;;;;1.50;0.73;;;19.40;90.00;;;;;;5048412;28;20163;-83
2023/09/22 15:49:27;;;;;;;0.70;0.70;;;19.40;90.00;;;;;;5038668;28;20522;-85
2023/09/22 15:51:54;;;;;;;0.50;0.50;;;19.40;90.00;;;;;;5054738;28;20489;-82
2023/09/22 15:54:20;;;;;;;0.35;0.35;;;19.40;90.00;;;;;;5044817;28;20508;-83
2023/09/22 15:56:45;;;;;;;1.40;0.60;;;19.50;90.00;;;;;;5046960;28;20044;-83
2023/09/22 15:59:11;;;;;;;0.52;0.47;;;19.40;90.00;;;;;;5060660;28;20390;-83
2023/09/22 16:01:37;;;;;;;0.43;0.43;;;19.40;90.00;;;;;;5062965;28;20024;-83
2023/09/22 16:04:04;;;;;;;0.93;0.60;;;19.40;90.00;;;;;;5061131;28;20069;-81
2023/09/22 16:06:30;;;;;;;1.25;0.70;;;19.50;90.00;;;;;;5038692;28;20021;-85
2023/09/22 16:08:56;;;;;;;1.05;0.50;;;19.40;90.00;;;;;;5044978;28;20044;-82
2023/09/22 16:11:22;;;;;;;0.50;0.50;;;19.40;90.00;;;;;;5060429;28;20470;-83
2023/09/22 16:13:48;;;;;;;0.45;0.45;;;19.40;89.90;;;;;;5048620;28;20449;-82
2023/09/22 16:16:13;;;;;;;3.70;0.60;;;19.40;89.90;;;;;;5048646;28;20111;-81
2023/09/22 16:18:39;;;;;;;0.98;0.55;;;19.40;89.90;;;;;;5049543;28;20120;-81
2023/09/22 16:21:05;;;;;;;1.38;0.70;;;19.40;89.90;;;;;;5038086;28;20071;-83
2023/09/22 16:23:32;;;;;;;0.63;0.50;;;19.40;89.90;;;;;;5045075;28;20422;-82
2023/09/22 16:26:08;;;;;;;0.57;0.50;;;19.40;89.90;;;;;;5045487;28;20021;-81
2023/09/22 16:28:35;;;;;;;1.00;0.60;;;19.40;89.90;;;;;;5055450;28;20068;-82
2023/09/22 16:31:01;;;;;;;0.65;0.52;;;19.40;89.90;;;;;;5045638;28;20013;-81
2023/09/22 16:33:32;;;;;;;0.60;0.47;;;19.40;89.90;;;;;;5063295;28;20074;-81
2023/09/22 16:35:58;;;;;;;0.90;0.55;;;19.40;89.90;;;;;;5055031;28;20377;-83
2023/09/22 16:38:24;;;;;;;0.60;0.57;;;19.40;89.90;;;;;;5051347;28;20025;-82
2023/09/22 16:40:51;;;;;;;0.85;0.60;;;19.40;89.90;;;;;;5046568;28;20054;-82
2023/09/22 16:43:17;;;;;;;0.63;0.63;;;19.40;89.90;;;;;;5054180;28;20090;-83
2023/09/22 16:45:43;;;;;;;0.57;0.57;;;19.40;89.90;;;;;;5052099;28;20017;-83
2023/09/22 16:48:09;;;;;;;0.55;0.52;;;19.40;89.90;;;;;;5073243;28;20514;-82
2023/09/22 16:50:34;;;;;;;0.50;0.50;;;19.40;89.90;;;;;;5055664;28;20009;-83
2023/09/22 16:53:00;;;;;;;0.40;0.40;;;19.40;89.80;;;;;;5049392;28;20033;-81
2023/09/22 16:55:27;;;;;;;0.75;0.50;;;19.40;89.80;;;;;;5071922;28;20082;-82
2023/09/22 16:57:52;;;;;;;1.60;0.80;;;19.40;89.80;;;;;;5071661;28;20021;-82
2023/09/22 17:00:18;;;;;;;0.65;0.65;;;19.40;89.70;;;;;;5066305;28;20051;-81
2023/09/22 17:02:56;;;;;;;1.45;0.80;;;19.40;89.80;;;;;;5052055;28;20120;-82
2023/09/22 17:05:22;;;;;;;0.40;0.40;;;19.40;89.80;;;;;;5047126;28;20109;-82
2023/09/22 17:07:47;;;;;;;0.63;0.63;;;19.40;89.70;;;;;;5047866;28;20064;-82
2023/09/22 17:10:14;;;;;;;1.02;0.90;;;19.40;89.70;;;;;;5067617;28;20019;-82
2023/09/22 17:12:40;;;;;;;0.75;0.70;;;19.40;89.70;;;;;;5046521;28;20021;-83
2023/09/22 17:15:07;;;;;;;0.95;0.60;;;19.40;89.70;;;;;;5068240;28;20024;-82
2023/09/22 17:17:34;;;;;;;1.38;0.80;;;19.40;89.70;;;;;;5064013;28;20025;-82
2023/09/22 17:20:01;;;;;;;0.80;0.55;;;19.40;89.60;;;;;;5053285;28;20104;-81
2023/09/22 17:22:28;;;;;;;0.60;0.60;;;19.40;89.60;;;;;;5051695;28;20131;-82
2023/09/22 17:24:54;;;;;;;0.57;0.57;;;19.40;89.60;;;;;;5072719;28;20051;-82
2023/09/22 17:27:19;;;;;;;2.78;0.70;;;19.40;89.50;;;;;;5065643;28;20013;-82
2023/09/22 17:29:45;;;;;;;0.80;0.80;;;19.40;89.50;;;;;;5070513;28;20115;-82
2023/09/22 17:32:11;;;;;;;2.28;1.60;;;19.40;89.50;;;;;;5048946;28;20024;-81
2023/09/22 17:34:38;;;;;;;1.50;1.33;;;19.40;89.50;;;;;;5046948;28;20397;-83
2023/09/22 17:37:04;;;;;;;1.40;1.13;;;19.30;89.40;;;;;;5050704;28;20035;-82
2023/09/22 17:39:30;;;;;;;2.05;1.40;;;19.30;89.40;;;;;;5049813;28;20473;-82
2023/09/22 17:41:56;;;;;;;1.33;1.00;;;19.40;89.50;;;;;;5047282;28;20052;-81
2023/09/22 17:44:23;;;;;;;0.95;0.85;;;19.40;89.50;;;;;;5044027;28;20053;-82
2023/09/22 17:46:51;;;;;;;1.10;1.00;;;19.40;89.50;;;;;;5064997;28;20436;-82
2023/09/22 17:49:18;;;;;;;1.00;0.90;;;19.40;89.50;;;;;;5064278;28;20032;-81
2023/09/22 17:51:43;;;;;;;1.40;1.08;;;19.40;89.50;;;;;;5048195;28;20036;-83
2023/09/22 17:54:09;;;;;;;0.85;0.82;;;19.30;89.30;;;;;;5047503;28;20024;-82
2023/09/22 17:56:35;;;;;;;3.20;1.20;;;19.40;89.40;;;;;;5066629;28;20020;-82
2023/09/22 17:59:01;;;;;;;3.85;1.27;;;19.40;89.40;;;;;;5063246;28;20473;-83
2023/09/22 18:01:27;;;;;;;2.00;1.20;;;19.30;89.30;;;;;;5040090;28;20547;-81
2023/09/22 18:03:53;;;;;;;1.33;1.10;;;19.40;89.40;;;;;;5068788;28;20067;-81
2023/09/22 18:06:19;;;;;;;0.80;0.80;;;19.30;89.30;;;;;;5046296;28;20149;-82
2023/09/22 18:08:44;;;;;;;3.78;1.00;;;19.30;89.30;;;;;;5063895;28;20489;-82
2023/09/22 18:11:10;;;;;;;4.65;1.27;;;19.30;89.30;;;;;;5064580;28;20025;-82
2023/09/22 18:13:39;;;;;;;1.40;1.20;;;19.40;89.30;;;;;;5049877;28;20465;-81
2023/09/22 18:16:05;;;;;;;2.80;1.10;;;19.40;89.30;;;;;;5052705;28;20579;-82
2023/09/22 18:18:32;;;;;;;1.27;1.08;;;19.30;89.20;;;;;;5063656;28;20075;-82
2023/09/22 18:20:58;;;;;;;1.48;0.90;;;19.30;89.20;;;;;;5055593;28;20025;-82
2023/09/22 18:23:25;;;;;;;1.13;1.00;;;19.30;89.20;;;;;;5069513;28;20115;-82
2023/09/22 18:25:52;;;;;;;4.00;0.80;;;19.30;89.20;;;;;;5055082;28;20032;-82
2023/09/22 18:28:18;;;;;;;3.47;1.10;;;19.30;89.20;;;;;;5046482;28;20028;-81
2023/09/22 18:30:43;;;;;;;1.08;0.98;;;19.30;89.20;;;;;;5061067;28;20017;-82
2023/09/22 18:33:12;;;;;;;1.30;0.80;;;19.30;89.20;;;;;;5039831;28;20099;-81
2023/09/22 18:35:38;;;;;;;1.33;0.93;;;19.80;89.60;;;;;;5044658;28;20020;-82
2023/09/22 18:38:04;;;;;;;2.25;1.10;;;19.30;89.10;;;;;;5045140;28;20032;-82
2023/09/22 18:40:32;;;;;;;2.33;1.17;;;19.30;89.10;;;;;;5046113;28;20021;-82
2023/09/22 18:42:57;;;;;;;2.53;1.08;;;19.30;89.20;;;;;;5038986;28;20107;-82
2023/09/22 18:45:27;;;;;;;1.63;1.00;;;19.30;89.20;;;;;;5044901;28;20438;-81
2023/09/22 18:47:53;;;;;;;0.73;0.73;;;19.30;89.10;;;;;;5045167;28;20028;-82
2023/09/22 18:50:20;;;;;;;1.13;0.95;;;19.30;89.10;;;;;;5047440;28;20047;-82
2023/09/22 18:52:46;;;;;;;0.82;0.80;;;19.30;89.10;;;;;;5044894;28;20474;-81
2023/09/22 18:55:12;;;;;;;0.80;0.80;;;19.30;89.10;;;;;;5040684;28;20114;-82
2023/09/22 18:57:37;;;;;;;0.65;0.60;;;19.30;89.10;;;;;;5056098;28;20036;-82
2023/09/22 19:00:04;;;;;;;0.85;0.68;;;19.30;89.10;;;;;;5049434;28;20016;-82
2023/09/22 19:02:30;;;;;;;2.10;0.93;;;19.30;89.10;;;;;;5045494;28;20021;-81
2023/09/22 19:04:56;;;;;;;0.80;0.60;;;19.30;89.10;;;;;;5064735;28;20028;-82
2023/09/22 19:07:21;;;;;;;0.80;0.57;;;19.30;89.10;;;;;;5043469;28;20032;-81